createdAt,value
2022-10-20T00:00:49.424Z,2.48
2022-10-20T00:02:49.437Z,2.46
2022-10-20T00:03:49.420Z,2.34
2022-10-20T00:04:49.381Z,2.41
2022-10-20T00:05:49.384Z,2.31
2022-10-20T00:06:49.351Z,2.42
2022-10-20T00:07:49.349Z,2.39
2022-10-20T00:08:49.425Z,2.36
2022-10-20T00:09:49.325Z,2.41
2022-10-20T00:10:49.338Z,2.49
2022-10-20T00:11:49.300Z,2.31
2022-10-20T00:12:49.289Z,2.48
2022-10-20T00:13:49.321Z,2.46
2022-10-20T00:14:49.263Z,2.54
2022-10-20T00:15:49.258Z,2.53
2022-10-20T00:16:49.243Z,2.53
2022-10-20T00:17:49.239Z,2.57
2022-10-20T00:18:49.248Z,2.60
2022-10-20T00:19:49.218Z,2.69
2022-10-20T00:20:49.205Z,2.78
2022-10-20T00:21:49.236Z,2.84
2022-10-20T00:22:49.178Z,2.67
2022-10-20T00:23:49.192Z,2.78
2022-10-20T00:24:49.164Z,2.84
2022-10-20T00:25:49.152Z,2.82
2022-10-20T00:26:49.128Z,2.82
2022-10-20T00:27:49.115Z,2.87
2022-10-20T00:28:49.132Z,2.92
2022-10-20T00:29:49.104Z,2.87
2022-10-20T00:30:49.085Z,2.87
2022-10-20T00:31:49.080Z,2.85
2022-10-20T00:32:49.065Z,2.90
2022-10-20T00:33:49.112Z,2.85
2022-10-20T00:34:49.051Z,2.97
2022-10-20T00:35:51.794Z,2.93
2022-10-20T00:36:51.309Z,3.10
2022-10-20T00:37:49.009Z,2.99
2022-10-20T00:38:49.018Z,2.95
2022-10-20T00:39:48.984Z,2.90
2022-10-20T00:40:48.985Z,2.96
2022-10-20T00:41:48.970Z,2.93
2022-10-20T00:42:48.961Z,2.97
2022-10-20T00:43:48.985Z,2.89
2022-10-20T00:44:48.946Z,2.82
2022-10-20T00:45:48.927Z,2.87
2022-10-20T00:46:48.925Z,2.82
2022-10-20T00:47:48.906Z,2.89
2022-10-20T00:48:48.892Z,2.84
2022-10-20T00:49:48.894Z,2.85
2022-10-20T00:50:48.869Z,2.92
2022-10-20T00:51:48.855Z,2.92
2022-10-20T00:52:51.525Z,2.87
2022-10-20T00:53:48.895Z,3.00
2022-10-20T00:54:48.817Z,2.96
2022-10-20T00:55:48.805Z,2.97
2022-10-20T00:56:48.853Z,3.03
2022-10-20T00:57:48.778Z,3.10
2022-10-20T00:58:48.793Z,3.14
2022-10-20T00:59:48.777Z,3.15
2022-10-20T01:00:48.772Z,3.13
2022-10-20T01:01:48.820Z,3.14
2022-10-20T01:02:48.727Z,3.11
2022-10-20T01:03:48.714Z,3.17
2022-10-20T01:04:48.704Z,3.13
2022-10-20T01:05:48.715Z,3.17
2022-10-20T01:06:48.684Z,3.26
2022-10-20T01:07:48.676Z,3.18
2022-10-20T01:08:48.716Z,3.29
2022-10-20T01:09:48.651Z,3.32
2022-10-20T01:10:48.662Z,3.43
2022-10-20T01:11:48.636Z,3.48
2022-10-20T01:12:48.629Z,3.50
2022-10-20T01:13:48.614Z,3.58
2022-10-20T01:14:48.601Z,3.70
2022-10-20T01:15:48.604Z,3.60
2022-10-20T01:16:48.580Z,3.65
2022-10-20T01:17:48.560Z,3.57
2022-10-20T01:18:48.552Z,3.66
2022-10-20T01:19:48.553Z,3.65
2022-10-20T01:20:48.554Z,3.73
2022-10-20T01:21:48.540Z,3.57
2022-10-20T01:22:48.503Z,3.65
2022-10-20T01:23:48.493Z,3.75
2022-10-20T01:24:48.516Z,3.96
2022-10-20T01:25:48.502Z,4.09
2022-10-20T01:26:48.485Z,4.36
2022-10-20T01:27:48.452Z,4.44
2022-10-20T01:28:48.757Z,4.51
2022-10-20T01:29:48.425Z,4.58
2022-10-20T01:30:48.437Z,4.65
2022-10-20T01:31:48.440Z,4.65
2022-10-20T01:32:48.457Z,4.62
2022-10-20T01:33:48.404Z,4.59
2022-10-20T01:34:50.664Z,4.67
2022-10-20T01:35:48.383Z,4.72
2022-10-20T01:36:48.358Z,4.65
2022-10-20T01:37:49.447Z,4.62
2022-10-20T01:38:48.347Z,4.52
2022-10-20T01:39:48.329Z,4.47
2022-10-20T01:40:48.307Z,4.42
2022-10-20T01:41:48.324Z,4.45
2022-10-20T01:42:48.301Z,4.55
2022-10-20T01:43:48.273Z,4.66
2022-10-20T01:44:48.270Z,5.00
2022-10-20T01:45:48.253Z,4.88
2022-10-20T01:46:48.255Z,5.02
2022-10-20T01:47:48.257Z,5.28
2022-10-20T01:48:48.213Z,5.49
2022-10-20T01:49:48.198Z,5.49
2022-10-20T01:50:48.196Z,5.54
2022-10-20T01:51:48.207Z,5.51
2022-10-20T01:52:48.170Z,5.43
2022-10-20T01:53:48.178Z,5.40
2022-10-20T01:54:48.146Z,5.31
2022-10-20T01:55:48.138Z,5.27
2022-10-20T01:56:48.129Z,5.31
2022-10-20T01:57:48.110Z,5.28
2022-10-20T01:58:48.120Z,5.31
2022-10-20T01:59:48.113Z,5.38
2022-10-20T02:00:48.133Z,5.38
2022-10-20T02:01:48.126Z,5.42
2022-10-20T02:02:48.057Z,5.28
2022-10-20T02:03:48.065Z,5.49
2022-10-20T02:04:48.032Z,5.33
2022-10-20T02:05:48.016Z,5.25
2022-10-20T02:06:48.031Z,5.33
2022-10-20T02:07:48.015Z,5.35
2022-10-20T02:08:48.072Z,5.36
2022-10-20T02:09:48.010Z,5.49
2022-10-20T02:10:47.968Z,5.40
2022-10-20T02:11:47.951Z,5.38
2022-10-20T02:12:47.961Z,5.48
2022-10-20T02:13:47.947Z,5.64
2022-10-20T02:14:47.916Z,5.63
2022-10-20T02:15:47.906Z,5.64
2022-10-20T02:16:48.815Z,5.58
2022-10-20T02:17:47.887Z,5.82
2022-10-20T02:18:47.966Z,5.78
2022-10-20T02:19:47.971Z,5.83
2022-10-20T02:20:47.854Z,5.79
2022-10-20T02:21:47.858Z,5.72
2022-10-20T02:22:47.843Z,5.71
2022-10-20T02:23:47.835Z,5.72
2022-10-20T02:24:47.812Z,5.64
2022-10-20T02:25:47.794Z,5.68
2022-10-20T02:26:47.791Z,5.60
2022-10-20T02:27:47.894Z,5.76
2022-10-20T02:28:47.783Z,5.81
2022-10-20T02:29:47.758Z,5.72
2022-10-20T02:30:47.759Z,5.79
2022-10-20T02:31:47.728Z,5.81
2022-10-20T02:32:47.741Z,5.76
2022-10-20T02:33:47.734Z,5.76
2022-10-20T02:34:47.704Z,5.74
2022-10-20T02:35:47.690Z,5.75
2022-10-20T02:36:47.696Z,5.61
2022-10-20T02:37:47.673Z,5.63
2022-10-20T02:38:47.654Z,5.63
2022-10-20T02:39:47.669Z,5.71
2022-10-20T02:40:47.637Z,5.57
2022-10-20T02:41:47.628Z,5.63
2022-10-20T02:42:47.621Z,5.67
2022-10-20T02:43:47.613Z,5.61
2022-10-20T02:44:47.606Z,5.56
2022-10-20T02:45:47.575Z,5.64
2022-10-20T02:46:47.568Z,5.61
2022-10-20T02:47:47.549Z,5.58
2022-10-20T02:48:47.555Z,5.54
2022-10-20T02:49:47.550Z,5.54
2022-10-20T02:50:47.519Z,5.61
2022-10-20T02:51:47.513Z,5.48
2022-10-20T02:52:47.503Z,5.49
2022-10-20T02:53:47.489Z,5.56
2022-10-20T02:54:47.496Z,5.65
2022-10-20T02:55:47.466Z,5.72
2022-10-20T02:56:47.460Z,5.81
2022-10-20T02:57:47.444Z,5.96
2022-10-20T02:58:47.465Z,5.94
2022-10-20T02:59:47.444Z,5.90
2022-10-20T03:00:47.425Z,5.83
2022-10-20T03:01:47.443Z,5.83
2022-10-20T03:02:47.384Z,5.96
2022-10-20T03:03:47.409Z,5.94
2022-10-20T03:04:47.381Z,6.00
2022-10-20T03:05:47.378Z,5.89
2022-10-20T03:06:47.339Z,5.99
2022-10-20T03:07:47.349Z,5.89
2022-10-20T03:08:47.355Z,5.99
2022-10-20T03:09:47.325Z,5.97
2022-10-20T03:10:47.314Z,6.14
2022-10-20T03:11:47.280Z,6.11
2022-10-20T03:12:47.275Z,6.09
2022-10-20T03:13:47.257Z,6.19
2022-10-20T03:14:47.253Z,6.17
2022-10-20T03:15:47.254Z,6.14
2022-10-20T03:16:47.256Z,6.11
2022-10-20T03:17:47.219Z,6.09
2022-10-20T03:18:47.219Z,6.09
2022-10-20T03:19:47.198Z,6.19
2022-10-20T03:20:47.198Z,6.14
2022-10-20T03:21:47.194Z,6.17
2022-10-20T03:22:47.164Z,6.09
2022-10-20T03:23:47.163Z,6.14
2022-10-20T03:24:47.139Z,6.19
2022-10-20T03:25:47.150Z,6.11
2022-10-20T03:26:47.139Z,6.22
2022-10-20T03:27:47.100Z,6.14
2022-10-20T03:28:47.098Z,6.12
2022-10-20T03:29:47.085Z,6.18
2022-10-20T03:30:47.081Z,6.12
2022-10-20T03:31:47.140Z,6.04
2022-10-20T03:32:47.043Z,6.04
2022-10-20T03:33:47.037Z,6.01
2022-10-20T03:34:47.034Z,5.99
2022-10-20T03:35:47.032Z,5.89
2022-10-20T03:36:47.042Z,5.96
2022-10-20T03:37:47.013Z,5.83
2022-10-20T03:38:46.999Z,5.78
2022-10-20T03:39:54.689Z,5.72
2022-10-20T03:40:46.965Z,5.72
2022-10-20T03:41:46.945Z,5.63
2022-10-20T03:42:46.955Z,5.67
2022-10-20T03:43:46.927Z,5.60
2022-10-20T03:44:46.920Z,5.56
2022-10-20T03:45:46.916Z,5.53
2022-10-20T03:46:46.915Z,5.65
2022-10-20T03:47:46.877Z,5.71
2022-10-20T03:48:46.866Z,5.72
2022-10-20T03:49:46.885Z,5.86
2022-10-20T03:50:46.844Z,5.93
2022-10-20T03:51:46.849Z,5.93
2022-10-20T03:52:46.839Z,6.06
2022-10-20T03:53:46.828Z,6.09
2022-10-20T03:54:46.800Z,6.28
2022-10-20T03:55:46.812Z,6.40
2022-10-20T03:56:46.795Z,6.40
2022-10-20T03:57:47.366Z,6.22
2022-10-20T03:58:46.754Z,6.31
2022-10-20T03:59:46.745Z,6.27
2022-10-20T04:00:46.734Z,6.27
2022-10-20T04:01:50.047Z,6.30
2022-10-20T04:02:46.709Z,6.27
2022-10-20T04:03:46.741Z,6.19
2022-10-20T04:04:46.684Z,6.19
2022-10-20T04:05:46.677Z,6.08
2022-10-20T04:06:46.683Z,6.11
2022-10-20T04:07:46.701Z,6.08
2022-10-20T04:08:46.713Z,6.01
2022-10-20T04:09:46.628Z,6.06
2022-10-20T04:10:46.630Z,5.96
2022-10-20T04:11:46.608Z,5.96
2022-10-20T04:12:46.617Z,6.00
2022-10-20T04:13:46.595Z,6.01
2022-10-20T04:14:46.577Z,6.15
2022-10-20T04:15:46.565Z,6.14
2022-10-20T04:16:46.571Z,6.04
2022-10-20T04:17:46.565Z,6.14
2022-10-20T04:18:46.553Z,6.18
2022-10-20T04:19:46.537Z,6.12
2022-10-20T04:20:46.507Z,6.17
2022-10-20T04:21:46.499Z,6.14
2022-10-20T04:22:46.505Z,6.15
2022-10-20T04:23:46.471Z,6.22
2022-10-20T04:24:46.481Z,6.14
2022-10-20T04:25:46.483Z,6.15
2022-10-20T04:26:46.478Z,6.15
2022-10-20T04:27:46.435Z,6.15
2022-10-20T04:28:46.440Z,6.15
2022-10-20T04:29:46.409Z,6.08
2022-10-20T04:30:46.397Z,6.06
2022-10-20T04:31:49.008Z,6.08
2022-10-20T04:32:46.378Z,6.12
2022-10-20T04:33:46.384Z,6.14
2022-10-20T04:34:46.353Z,6.14
2022-10-20T04:35:46.415Z,6.12
2022-10-20T04:36:46.333Z,6.04
2022-10-20T04:37:46.331Z,6.09
2022-10-20T04:38:46.331Z,6.17
2022-10-20T04:39:46.316Z,6.17
2022-10-20T04:40:46.308Z,6.21
2022-10-20T04:41:46.276Z,6.06
2022-10-20T04:42:46.295Z,6.11
2022-10-20T04:43:46.266Z,6.03
2022-10-20T04:44:46.302Z,6.04
2022-10-20T04:45:46.231Z,5.97
2022-10-20T04:46:46.243Z,5.97
2022-10-20T04:47:46.206Z,5.90
2022-10-20T04:48:46.204Z,5.97
2022-10-20T04:49:46.198Z,5.85
2022-10-20T04:50:46.195Z,5.99
2022-10-20T04:51:46.185Z,5.97
2022-10-20T04:52:46.154Z,5.82
2022-10-20T04:53:46.141Z,5.93
2022-10-20T04:54:46.137Z,5.93
2022-10-20T04:55:46.156Z,5.86
2022-10-20T04:56:46.132Z,5.93
2022-10-20T04:57:46.117Z,5.97
2022-10-20T04:58:46.087Z,5.93
2022-10-20T04:59:46.080Z,5.99
2022-10-20T05:00:46.086Z,5.96
2022-10-20T05:01:46.151Z,5.97
2022-10-20T05:02:46.042Z,5.89
2022-10-20T05:03:46.031Z,5.94
2022-10-20T05:04:46.022Z,5.94
2022-10-20T05:05:46.050Z,6.01
2022-10-20T05:06:46.000Z,6.09
2022-10-20T05:07:45.998Z,6.06
2022-10-20T05:08:46.033Z,6.12
2022-10-20T05:09:46.003Z,6.19
2022-10-20T05:10:45.969Z,6.14
2022-10-20T05:11:45.966Z,6.04
2022-10-20T05:12:45.951Z,6.19
2022-10-20T05:13:45.933Z,6.19
2022-10-20T05:14:45.932Z,6.28
2022-10-20T05:15:45.924Z,6.40
2022-10-20T05:16:45.889Z,6.37
2022-10-20T05:17:45.879Z,6.36
2022-10-20T05:18:45.886Z,6.37
2022-10-20T05:19:45.973Z,6.28
2022-10-20T05:21:07.186Z,6.33
2022-10-20T05:21:46.980Z,6.38
2022-10-20T05:22:45.833Z,6.51
2022-10-20T05:23:45.824Z,6.49
2022-10-20T05:24:45.802Z,6.49
2022-10-20T05:25:45.806Z,6.40
2022-10-20T05:26:45.791Z,6.49
2022-10-20T05:27:45.805Z,6.52
2022-10-20T05:28:45.774Z,6.40
2022-10-20T05:29:45.762Z,6.37
2022-10-20T05:30:45.761Z,6.49
2022-10-20T05:31:45.721Z,6.43
2022-10-20T05:32:45.729Z,6.41
2022-10-20T05:33:45.699Z,6.40
2022-10-20T05:34:45.801Z,6.48
2022-10-20T05:35:45.694Z,6.55
2022-10-20T05:36:45.667Z,6.54
2022-10-20T05:37:45.657Z,6.52
2022-10-20T05:38:46.687Z,6.43
2022-10-20T05:39:45.667Z,6.46
2022-10-20T05:40:45.620Z,6.48
2022-10-20T05:41:45.635Z,6.54
2022-10-20T05:42:45.600Z,6.41
2022-10-20T05:43:45.586Z,6.49
2022-10-20T05:44:45.613Z,6.55
2022-10-20T05:45:45.570Z,6.58
2022-10-20T05:46:45.585Z,6.49
2022-10-20T05:47:45.546Z,6.49
2022-10-20T05:48:45.537Z,6.44
2022-10-20T05:49:45.526Z,6.52
2022-10-20T05:51:45.525Z,6.41
2022-10-20T05:52:45.488Z,6.37
2022-10-20T05:53:45.475Z,6.33
2022-10-20T05:54:45.462Z,6.40
2022-10-20T05:55:45.477Z,6.71
2022-10-20T05:56:45.467Z,6.64
2022-10-20T05:57:45.432Z,6.76
2022-10-20T05:58:45.421Z,6.71
2022-10-20T05:59:45.413Z,6.67
2022-10-20T06:00:45.430Z,6.64
2022-10-20T06:01:45.389Z,6.61
2022-10-20T06:02:45.401Z,6.54
2022-10-20T06:03:45.384Z,6.62
2022-10-20T06:04:45.353Z,6.52
2022-10-20T06:05:45.353Z,6.59
2022-10-20T06:06:45.329Z,6.69
2022-10-20T06:07:45.322Z,6.61
2022-10-20T06:08:45.383Z,6.61
2022-10-20T06:09:45.302Z,6.54
2022-10-20T06:10:45.287Z,6.56
2022-10-20T06:11:45.302Z,6.58
2022-10-20T06:12:45.267Z,6.48
2022-10-20T06:13:47.220Z,6.55
2022-10-20T06:14:45.279Z,6.51
2022-10-20T06:15:45.233Z,6.64
2022-10-20T06:16:45.236Z,6.66
2022-10-20T06:17:45.212Z,6.52
2022-10-20T06:18:45.200Z,6.54
2022-10-20T06:19:45.207Z,6.56
2022-10-20T06:20:45.206Z,6.73
2022-10-20T06:21:45.179Z,6.74
2022-10-20T06:22:45.162Z,6.71
2022-10-20T06:23:45.142Z,6.74
2022-10-20T06:24:45.153Z,6.79
2022-10-20T06:25:45.122Z,6.74
2022-10-20T06:26:45.149Z,6.73
2022-10-20T06:27:45.103Z,6.84
2022-10-20T06:28:45.087Z,6.94
2022-10-20T06:29:45.101Z,6.97
2022-10-20T06:30:45.065Z,6.95
2022-10-20T06:31:45.057Z,6.98
2022-10-20T06:32:45.077Z,6.95
2022-10-20T06:33:45.040Z,6.98
2022-10-20T06:34:45.021Z,6.95
2022-10-20T06:35:45.031Z,7.02
2022-10-20T06:36:45.017Z,6.89
2022-10-20T06:37:44.997Z,6.88
2022-10-20T06:38:45.002Z,6.94
2022-10-20T06:39:44.964Z,7.03
2022-10-20T06:40:44.955Z,7.05
2022-10-20T06:41:44.998Z,7.02
2022-10-20T06:42:44.990Z,7.06
2022-10-20T06:43:44.934Z,7.09
2022-10-20T06:44:44.905Z,7.09
2022-10-20T06:45:44.894Z,7.10
2022-10-20T06:46:44.903Z,7.05
2022-10-20T06:47:44.888Z,7.09
2022-10-20T06:48:44.891Z,7.03
2022-10-20T06:49:44.879Z,7.05
2022-10-20T06:50:44.838Z,7.12
2022-10-20T06:51:44.848Z,7.13
2022-10-20T06:52:44.840Z,7.17
2022-10-20T06:53:46.707Z,7.23
2022-10-20T06:54:44.802Z,7.20
2022-10-20T06:55:44.791Z,7.23
2022-10-20T06:56:44.801Z,7.27
2022-10-20T06:57:44.756Z,7.27
2022-10-20T06:58:44.765Z,7.35
2022-10-20T06:59:44.733Z,7.31
2022-10-20T07:00:44.735Z,7.34
2022-10-20T07:01:44.780Z,7.35
2022-10-20T07:02:44.709Z,7.31
2022-10-20T07:03:44.725Z,7.40
2022-10-20T07:04:44.888Z,7.37
2022-10-20T07:05:44.794Z,7.40
2022-10-20T07:06:44.654Z,7.39
2022-10-20T07:07:44.648Z,7.37
2022-10-20T07:08:44.712Z,7.55
2022-10-20T07:09:44.771Z,7.55
2022-10-20T07:10:44.631Z,7.67
2022-10-20T07:11:44.597Z,7.60
2022-10-20T07:12:45.299Z,7.77
2022-10-20T07:13:44.576Z,7.74
2022-10-20T07:14:44.570Z,7.83
2022-10-20T07:15:44.553Z,7.86
2022-10-20T07:16:44.585Z,7.83
2022-10-20T07:17:44.538Z,7.82
2022-10-20T07:19:47.323Z,7.79
2022-10-20T07:20:44.525Z,7.79
2022-10-20T07:21:45.946Z,7.79
2022-10-20T07:22:44.493Z,7.86
2022-10-20T07:23:44.458Z,7.89
2022-10-20T07:24:44.470Z,7.93
2022-10-20T07:25:44.451Z,7.98
2022-10-20T07:26:44.424Z,8.00
2022-10-20T07:27:44.445Z,8.07
2022-10-20T07:28:44.408Z,8.07
2022-10-20T07:29:44.394Z,8.05
2022-10-20T07:30:44.386Z,8.12
2022-10-20T07:31:44.389Z,8.08
2022-10-20T07:32:44.361Z,8.10
2022-10-20T07:33:44.500Z,8.11
2022-10-20T07:34:44.336Z,8.15
2022-10-20T07:35:44.333Z,8.15
2022-10-20T07:36:44.351Z,8.15
2022-10-20T07:37:44.308Z,8.26
2022-10-20T07:38:44.367Z,8.30
2022-10-20T07:39:44.314Z,8.23
2022-10-20T07:40:44.273Z,8.25
2022-10-20T07:41:44.268Z,8.36
2022-10-20T07:42:44.246Z,8.37
2022-10-20T07:43:44.255Z,8.43
2022-10-20T07:44:44.257Z,8.38
2022-10-20T07:45:44.218Z,8.33
2022-10-20T07:46:44.229Z,8.44
2022-10-20T07:47:46.885Z,8.36
2022-10-20T07:48:44.176Z,8.47
2022-10-20T07:49:45.070Z,8.36
2022-10-20T07:50:44.205Z,8.52
2022-10-20T07:51:44.167Z,8.55
2022-10-20T07:52:44.153Z,8.55
2022-10-20T07:53:44.124Z,8.59
2022-10-20T07:54:44.136Z,8.62
2022-10-20T07:55:44.102Z,8.70
2022-10-20T07:56:44.094Z,8.79
2022-10-20T07:57:44.077Z,8.80
2022-10-20T07:58:44.069Z,8.73
2022-10-20T07:59:44.106Z,8.81
2022-10-20T08:00:44.059Z,8.80
2022-10-20T08:01:44.464Z,8.80
2022-10-20T08:02:44.034Z,8.80
2022-10-20T08:03:44.029Z,8.86
2022-10-20T08:04:44.032Z,8.81
2022-10-20T08:05:43.998Z,8.81
2022-10-20T08:06:43.975Z,8.81
2022-10-20T08:07:43.975Z,8.84
2022-10-20T08:08:44.002Z,8.92
2022-10-20T08:10:43.946Z,8.95
2022-10-20T08:11:43.943Z,9.01
2022-10-20T08:12:43.910Z,9.05
2022-10-20T08:13:43.907Z,9.02
2022-10-20T08:14:43.972Z,9.04
2022-10-20T08:15:43.983Z,9.14
2022-10-20T08:16:46.313Z,9.17
2022-10-20T08:17:43.877Z,9.21
2022-10-20T08:18:45.820Z,9.18
2022-10-20T08:19:47.813Z,9.21
2022-10-20T08:20:43.836Z,9.17
2022-10-20T08:21:43.831Z,9.32
2022-10-20T08:22:43.799Z,9.33
2022-10-20T08:23:43.825Z,9.36
2022-10-20T08:24:43.800Z,9.33
2022-10-20T08:25:43.781Z,9.35
2022-10-20T08:26:43.784Z,9.33
2022-10-20T08:27:43.785Z,9.33
2022-10-20T08:28:43.745Z,9.35
2022-10-20T08:29:50.783Z,9.50
2022-10-20T08:30:44.717Z,9.47
2022-10-20T08:31:43.717Z,9.47
2022-10-20T08:32:43.700Z,9.51
2022-10-20T08:33:43.675Z,9.51
2022-10-20T08:34:43.722Z,9.50
2022-10-20T08:35:43.668Z,9.47
2022-10-20T08:36:43.641Z,9.61
2022-10-20T08:37:43.635Z,9.58
2022-10-20T08:38:43.664Z,9.60
2022-10-20T08:39:43.627Z,9.58
2022-10-20T08:40:43.610Z,9.61
2022-10-20T08:42:06.458Z,9.60
2022-10-20T08:42:44.582Z,9.66
2022-10-20T08:43:43.562Z,9.69
2022-10-20T08:44:43.579Z,9.66
2022-10-20T08:45:43.551Z,9.58
2022-10-20T08:46:43.540Z,9.68
2022-10-20T08:47:43.516Z,9.78
2022-10-20T08:48:43.510Z,9.78
2022-10-20T08:49:43.538Z,9.81
2022-10-20T08:50:43.504Z,9.86
2022-10-20T08:51:43.485Z,9.83
2022-10-20T08:52:43.464Z,9.86
2022-10-20T08:53:43.456Z,9.90
2022-10-20T08:54:43.466Z,9.87
2022-10-20T08:55:43.461Z,9.89
2022-10-20T08:56:44.529Z,9.81
2022-10-20T08:57:43.713Z,9.81
2022-10-20T08:58:43.393Z,9.79
2022-10-20T08:59:43.398Z,9.75
2022-10-20T09:00:43.395Z,9.87
2022-10-20T09:01:43.498Z,9.83
2022-10-20T09:02:43.389Z,9.87
2022-10-20T09:03:43.342Z,9.84
2022-10-20T09:05:43.314Z,10.01
2022-10-20T09:06:43.322Z,10.04
2022-10-20T09:07:43.312Z,9.99
2022-10-20T09:08:43.346Z,10.04
2022-10-20T09:09:43.293Z,10.17
2022-10-20T09:10:43.259Z,10.04
2022-10-20T09:11:43.277Z,10.15
2022-10-20T09:12:43.257Z,10.20
2022-10-20T09:13:43.283Z,10.15
2022-10-20T09:14:43.311Z,10.11
2022-10-20T09:15:43.383Z,10.17
2022-10-20T09:16:59.083Z,10.18
2022-10-20T09:17:44.217Z,10.15
2022-10-20T09:18:43.182Z,10.15
2022-10-20T09:19:43.173Z,10.22
2022-10-20T09:20:43.187Z,10.22
2022-10-20T09:21:43.131Z,10.26
2022-10-20T09:22:43.138Z,10.23
2022-10-20T09:23:43.197Z,10.23
2022-10-20T09:24:43.180Z,10.26
2022-10-20T09:25:43.104Z,10.29
2022-10-20T09:26:58.022Z,10.30
2022-10-20T09:27:44.070Z,10.34
2022-10-20T09:29:02.172Z,10.25
2022-10-20T09:29:44.041Z,10.30
2022-10-20T09:30:43.052Z,10.42
2022-10-20T09:31:43.028Z,10.40
2022-10-20T09:32:47.569Z,10.47
2022-10-20T09:33:44.026Z,10.60
2022-10-20T09:34:43.048Z,10.56
2022-10-20T09:35:42.996Z,10.53
2022-10-20T09:36:42.962Z,10.55
2022-10-20T09:37:42.955Z,10.59
2022-10-20T09:38:42.967Z,10.66
2022-10-20T09:39:42.932Z,10.68
2022-10-20T09:40:42.919Z,10.67
2022-10-20T09:41:42.911Z,10.63
2022-10-20T09:42:42.901Z,10.67
2022-10-20T09:43:42.910Z,10.64
2022-10-20T09:44:42.903Z,10.68
2022-10-20T09:45:42.874Z,10.74
2022-10-20T09:46:42.852Z,10.76
2022-10-20T09:47:42.852Z,10.84
2022-10-20T09:48:42.846Z,10.81
2022-10-20T09:49:42.819Z,10.88
2022-10-20T09:50:42.826Z,10.88
2022-10-20T09:51:42.822Z,10.85
2022-10-20T09:52:42.785Z,10.89
2022-10-20T09:53:42.773Z,10.96
2022-10-20T09:54:42.825Z,11.00
2022-10-20T09:55:42.775Z,10.96
2022-10-20T09:56:42.746Z,11.00
2022-10-20T09:57:42.728Z,11.04
2022-10-20T09:58:42.714Z,11.04
2022-10-20T09:59:42.726Z,11.02
2022-10-20T10:00:42.783Z,11.06
2022-10-20T10:01:42.705Z,11.09
2022-10-20T10:02:42.673Z,11.09
2022-10-20T10:03:42.699Z,11.07
2022-10-20T10:04:42.650Z,11.02
2022-10-20T10:05:42.640Z,11.02
2022-10-20T10:06:42.650Z,11.04
2022-10-20T10:07:42.614Z,11.07
2022-10-20T10:08:42.683Z,11.07
2022-10-20T10:09:42.613Z,11.07
2022-10-20T10:10:42.598Z,11.10
2022-10-20T10:11:42.568Z,11.17
2022-10-20T10:12:42.569Z,11.28
2022-10-20T10:13:42.551Z,11.24
2022-10-20T10:14:42.543Z,11.32
2022-10-20T10:15:42.546Z,11.28
2022-10-20T10:16:42.531Z,11.32
2022-10-20T10:17:42.504Z,11.39
2022-10-20T10:18:46.766Z,11.36
2022-10-20T10:19:43.484Z,11.36
2022-10-20T10:20:42.504Z,11.36
2022-10-20T10:21:42.456Z,11.36
2022-10-20T10:22:42.460Z,11.36
2022-10-20T10:23:42.440Z,11.25
2022-10-20T10:24:42.431Z,11.28
2022-10-20T10:25:42.430Z,11.25
2022-10-20T10:26:42.432Z,11.33
2022-10-20T10:27:42.394Z,11.39
2022-10-20T10:28:42.378Z,11.39
2022-10-20T10:29:42.373Z,11.46
2022-10-20T10:30:45.719Z,11.42
2022-10-20T10:31:43.349Z,11.44
2022-10-20T10:32:42.360Z,11.42
2022-10-20T10:33:42.384Z,11.49
2022-10-20T10:34:42.336Z,11.52
2022-10-20T10:35:42.325Z,11.52
2022-10-20T10:36:42.315Z,11.57
2022-10-20T10:37:44.920Z,11.58
2022-10-20T10:38:42.271Z,11.61
2022-10-20T10:39:42.256Z,11.64
2022-10-20T10:40:42.283Z,11.64
2022-10-20T10:41:42.253Z,11.72
2022-10-20T10:42:42.232Z,11.78
2022-10-20T10:43:44.976Z,11.69
2022-10-20T10:44:43.221Z,11.70
2022-10-20T10:45:42.187Z,11.69
2022-10-20T10:47:42.487Z,11.72
2022-10-20T10:48:42.168Z,11.70
2022-10-20T10:49:42.166Z,11.54
2022-10-20T10:50:42.150Z,11.60
2022-10-20T10:51:42.146Z,11.67
2022-10-20T10:52:42.107Z,11.70
2022-10-20T10:53:42.098Z,11.75
2022-10-20T10:54:42.107Z,11.86
2022-10-20T10:55:48.654Z,11.90
2022-10-20T10:56:43.077Z,12.01
2022-10-20T10:57:42.055Z,12.04
2022-10-20T10:58:42.045Z,12.13
2022-10-20T10:59:42.054Z,12.13
2022-10-20T11:00:42.045Z,12.17
2022-10-20T11:01:42.035Z,12.23
2022-10-20T11:02:41.992Z,12.32
2022-10-20T11:03:41.988Z,12.24
2022-10-20T11:04:41.999Z,12.42
2022-10-20T11:05:41.959Z,12.39
2022-10-20T11:06:42.014Z,12.17
2022-10-20T11:07:41.945Z,12.12
2022-10-20T11:08:41.974Z,12.10
2022-10-20T11:09:41.921Z,11.95
2022-10-20T11:10:41.903Z,11.99
2022-10-20T11:11:41.893Z,12.05
2022-10-20T11:12:41.911Z,12.23
2022-10-20T11:13:41.868Z,12.29
2022-10-20T11:14:41.885Z,12.54
2022-10-20T11:15:41.868Z,12.32
2022-10-20T11:16:41.834Z,12.41
2022-10-20T11:17:41.822Z,12.54
2022-10-20T11:18:41.822Z,12.41
2022-10-20T11:19:41.819Z,12.39
2022-10-20T11:20:41.811Z,12.34
2022-10-20T11:21:41.779Z,12.53
2022-10-20T11:22:41.766Z,12.50
2022-10-20T11:23:41.755Z,12.65
2022-10-20T11:24:41.770Z,12.77
2022-10-20T11:25:41.731Z,12.85
2022-10-20T11:26:41.744Z,13.01
2022-10-20T11:27:42.324Z,13.00
2022-10-20T11:28:41.702Z,12.96
2022-10-20T11:29:41.686Z,13.08
2022-10-20T11:30:41.687Z,13.10
2022-10-20T11:31:41.689Z,13.32
2022-10-20T11:32:41.676Z,13.44
2022-10-20T11:33:41.667Z,13.52
2022-10-20T11:34:41.683Z,13.52
2022-10-20T11:35:41.622Z,13.23
2022-10-20T11:36:41.623Z,13.29
2022-10-20T11:37:41.620Z,13.20
2022-10-20T11:38:41.587Z,13.12
2022-10-20T11:39:41.576Z,13.15
2022-10-20T11:40:41.570Z,13.19
2022-10-20T11:42:41.575Z,13.46
2022-10-20T11:43:41.603Z,13.48
2022-10-20T11:44:41.524Z,13.44
2022-10-20T11:45:41.511Z,13.38
2022-10-20T11:46:41.497Z,13.45
2022-10-20T11:47:41.491Z,13.49
2022-10-20T11:48:41.513Z,13.64
2022-10-20T11:49:41.461Z,13.73
2022-10-20T11:50:41.457Z,13.78
2022-10-20T11:51:41.441Z,13.87
2022-10-20T11:52:41.471Z,13.91
2022-10-20T11:53:41.418Z,13.81
2022-10-20T11:54:41.433Z,13.82
2022-10-20T11:55:41.399Z,13.79
2022-10-20T11:56:41.387Z,13.70
2022-10-20T11:57:41.396Z,13.55
2022-10-20T11:58:41.380Z,13.46
2022-10-20T11:59:41.352Z,13.52
2022-10-20T12:00:41.350Z,13.67
2022-10-20T12:01:41.432Z,13.78
2022-10-20T12:02:41.357Z,13.77
2022-10-20T12:03:41.323Z,13.78
2022-10-20T12:04:41.297Z,13.77
2022-10-20T12:05:41.283Z,13.75
2022-10-20T12:06:41.324Z,13.67
2022-10-20T12:07:41.259Z,13.69
2022-10-20T12:08:41.382Z,13.71
2022-10-20T12:09:41.241Z,13.69
2022-10-20T12:10:41.333Z,13.64
2022-10-20T12:11:41.216Z,13.66
2022-10-20T12:12:41.227Z,13.71
2022-10-20T12:13:41.215Z,13.71
2022-10-20T12:14:43.226Z,13.75
2022-10-20T12:15:41.175Z,13.55
2022-10-20T12:16:41.181Z,13.60
2022-10-20T12:17:41.150Z,13.67
2022-10-20T12:18:41.167Z,13.57
2022-10-20T12:19:41.127Z,13.64
2022-10-20T12:20:41.120Z,13.75
2022-10-20T12:21:41.107Z,13.70
2022-10-20T12:22:41.095Z,13.64
2022-10-20T12:23:41.106Z,13.62
2022-10-20T12:24:41.091Z,13.51
2022-10-20T12:25:41.063Z,13.48
2022-10-20T12:26:43.913Z,13.54
2022-10-20T12:27:41.077Z,13.69
2022-10-20T12:28:41.032Z,13.64
2022-10-20T12:29:41.037Z,13.70
2022-10-20T12:30:41.016Z,13.69
2022-10-20T12:31:40.993Z,13.70
2022-10-20T12:32:41.002Z,13.71
2022-10-20T12:33:40.970Z,13.66
2022-10-20T12:34:41.009Z,13.69
2022-10-20T12:35:40.949Z,13.59
2022-10-20T12:36:40.944Z,13.45
2022-10-20T12:37:43.475Z,13.36
2022-10-20T12:38:41.917Z,13.38
2022-10-20T12:39:40.937Z,13.26
2022-10-20T12:40:40.922Z,13.26
2022-10-20T12:41:40.980Z,13.10
2022-10-20T12:42:40.889Z,13.17
2022-10-20T12:43:40.860Z,13.26
2022-10-20T12:44:40.934Z,13.25
2022-10-20T12:45:40.868Z,13.20
2022-10-20T12:46:40.828Z,13.23
2022-10-20T12:47:40.834Z,13.23
2022-10-20T12:48:40.808Z,13.22
2022-10-20T12:49:40.794Z,13.28
2022-10-20T12:50:40.806Z,13.30
2022-10-20T12:51:40.794Z,13.20
2022-10-20T12:52:40.764Z,13.17
2022-10-20T12:53:40.754Z,13.17
2022-10-20T12:54:44.922Z,13.12
2022-10-20T12:55:42.297Z,13.26
2022-10-20T12:56:40.738Z,13.22
2022-10-20T12:57:40.716Z,13.20
2022-10-20T12:58:40.700Z,13.20
2022-10-20T12:59:40.708Z,13.19
2022-10-20T13:00:40.708Z,13.22
2022-10-20T13:01:40.665Z,13.00
2022-10-20T13:02:40.676Z,12.95
2022-10-20T13:03:40.650Z,13.03
2022-10-20T13:04:43.235Z,13.01
2022-10-20T13:05:40.618Z,12.97
2022-10-20T13:06:40.610Z,13.00
2022-10-20T13:07:40.759Z,13.07
2022-10-20T13:08:40.626Z,13.12
2022-10-20T13:09:40.583Z,13.03
2022-10-20T13:10:40.561Z,12.96
2022-10-20T13:11:40.553Z,13.14
2022-10-20T13:12:40.577Z,13.15
2022-10-20T13:13:40.534Z,13.12
2022-10-20T13:14:40.536Z,13.12
2022-10-20T13:15:40.512Z,13.08
2022-10-20T13:16:40.495Z,13.17
2022-10-20T13:17:40.482Z,13.10